sensor_id;sensor_type;location;lat;lon;timestamp;pressure;altitude;pressure_sealevel;temperature;humidity
67980;BME280;54760;47.490;19.030;2023-05-22T00:01:25;100036.25;;;19.77;61.71
67980;BME280;54760;47.490;19.030;2023-05-22T00:03:51;100038.59;;;19.50;62.83
67980;BME280;54760;47.490;19.030;2023-05-22T00:06:17;100027.84;;;19.57;62.02
67980;BME280;54760;47.490;19.030;2023-05-22T00:08:43;100034.28;;;19.34;62.72
67980;BME280;54760;47.490;19.030;2023-05-22T00:11:08;100034.38;;;19.39;62.45
67980;BME280;54760;47.490;19.030;2023-05-22T00:13:34;100038.00;;;19.31;63.09
67980;BME280;54760;47.490;19.030;2023-05-22T00:15:59;100041.16;;;19.09;63.98
67980;BME280;54760;47.490;19.030;2023-05-22T00:18:24;100036.66;;;19.12;64.24
67980;BME280;54760;47.490;19.030;2023-05-22T00:20:51;100036.84;;;19.08;64.34
67980;BME280;54760;47.490;19.030;2023-05-22T00:23:17;100035.22;;;19.31;63.38
67980;BME280;54760;47.490;19.030;2023-05-22T00:25:43;100041.63;;;19.08;63.88
67980;BME280;54760;47.490;19.030;2023-05-22T00:28:10;100033.50;;;18.89;64.68
67980;BME280;54760;47.490;19.030;2023-05-22T00:30:36;100039.16;;;18.95;64.96
67980;BME280;54760;47.490;19.030;2023-05-22T00:33:01;100032.81;;;18.80;64.88
67980;BME280;54760;47.490;19.030;2023-05-22T00:35:28;100031.28;;;18.79;64.99
67980;BME280;54760;47.490;19.030;2023-05-22T00:37:53;100041.81;;;18.51;66.00
67980;BME280;54760;47.490;19.030;2023-05-22T00:40:19;100041.91;;;18.42;66.05
67980;BME280;54760;47.490;19.030;2023-05-22T00:42:45;100044.47;;;18.45;65.48
67980;BME280;54760;47.490;19.030;2023-05-22T00:45:15;100046.44;;;18.06;66.88
67980;BME280;54760;47.490;19.030;2023-05-22T00:47:41;100045.25;;;18.70;64.59
67980;BME280;54760;47.490;19.030;2023-05-22T00:50:09;100044.28;;;18.73;64.55
67980;BME280;54760;47.490;19.030;2023-05-22T00:52:37;100047.44;;;18.42;65.18
67980;BME280;54760;47.490;19.030;2023-05-22T00:55:04;100041.50;;;18.49;64.83
67980;BME280;54760;47.490;19.030;2023-05-22T00:57:31;100039.50;;;18.73;63.93
67980;BME280;54760;47.490;19.030;2023-05-22T00:59:58;100046.09;;;18.61;63.55
67980;BME280;54760;47.490;19.030;2023-05-22T01:02:24;100043.19;;;18.55;63.36
67980;BME280;54760;47.490;19.030;2023-05-22T01:04:50;100030.97;;;18.38;64.11
67980;BME280;54760;47.490;19.030;2023-05-22T01:07:16;100034.28;;;18.51;63.16
67980;BME280;54760;47.490;19.030;2023-05-22T01:09:42;100035.09;;;17.95;65.00
67980;BME280;54760;47.490;19.030;2023-05-22T01:12:32;100034.97;;;17.90;65.81
67980;BME280;54760;47.490;19.030;2023-05-22T01:20:25;100031.97;;;18.50;63.52
67980;BME280;54760;47.490;19.030;2023-05-22T01:25:52;100039.19;;;17.34;67.64
67980;BME280;54760;47.490;19.030;2023-05-22T01:31:14;100050.19;;;17.61;67.10
67980;BME280;54760;47.490;19.030;2023-05-22T01:33:45;100045.44;;;17.53;67.50
67980;BME280;54760;47.490;19.030;2023-05-22T01:36:13;100047.63;;;17.82;66.24
67980;BME280;54760;47.490;19.030;2023-05-22T01:38:40;100032.22;;;18.13;64.37
67980;BME280;54760;47.490;19.030;2023-05-22T01:41:06;100031.34;;;18.07;64.62
67980;BME280;54760;47.490;19.030;2023-05-22T01:43:33;100025.66;;;17.78;65.87
67980;BME280;54760;47.490;19.030;2023-05-22T01:45:59;100022.91;;;18.02;65.63
67980;BME280;54760;47.490;19.030;2023-05-22T01:48:26;100025.88;;;17.98;65.55
67980;BME280;54760;47.490;19.030;2023-05-22T01:50:52;100027.37;;;17.15;69.17
67980;BME280;54760;47.490;19.030;2023-05-22T01:53:29;100024.38;;;16.86;70.50
67980;BME280;54760;47.490;19.030;2023-05-22T01:56:05;100021.53;;;17.22;68.28
67980;BME280;54760;47.490;19.030;2023-05-22T01:58:47;100010.84;;;17.48;66.59
67980;BME280;54760;47.490;19.030;2023-05-22T02:01:16;100004.28;;;17.79;64.90
67980;BME280;54760;47.490;19.030;2023-05-22T02:03:42;100001.97;;;17.77;65.11
67980;BME280;54760;47.490;19.030;2023-05-22T02:06:12;99999.22;;;17.77;63.77
67980;BME280;54760;47.490;19.030;2023-05-22T02:08:40;100003.53;;;18.02;62.52
67980;BME280;54760;47.490;19.030;2023-05-22T02:11:07;100010.19;;;17.95;62.54
67980;BME280;54760;47.490;19.030;2023-05-22T02:13:34;100011.59;;;17.58;64.20
67980;BME280;54760;47.490;19.030;2023-05-22T02:16:00;100016.84;;;17.47;64.95
67980;BME280;54760;47.490;19.030;2023-05-22T02:18:26;100013.25;;;17.22;65.93
67980;BME280;54760;47.490;19.030;2023-05-22T02:20:55;100007.25;;;17.66;64.42
67980;BME280;54760;47.490;19.030;2023-05-22T02:23:20;100005.94;;;17.85;63.84
67980;BME280;54760;47.490;19.030;2023-05-22T02:25:46;100012.78;;;17.66;64.35
67980;BME280;54760;47.490;19.030;2023-05-22T02:28:11;100003.16;;;17.52;64.55
67980;BME280;54760;47.490;19.030;2023-05-22T02:30:37;100014.97;;;17.62;63.87
67980;BME280;54760;47.490;19.030;2023-05-22T02:33:02;100009.06;;;17.78;63.08
67980;BME280;54760;47.490;19.030;2023-05-22T02:35:29;100002.75;;;17.78;62.33
67980;BME280;54760;47.490;19.030;2023-05-22T02:37:55;100008.06;;;17.90;61.77
67980;BME280;54760;47.490;19.030;2023-05-22T02:40:20;99996.56;;;17.83;61.85
67980;BME280;54760;47.490;19.030;2023-05-22T02:42:45;100005.09;;;17.70;62.15
67980;BME280;54760;47.490;19.030;2023-05-22T02:45:11;99997.72;;;17.67;61.92
67980;BME280;54760;47.490;19.030;2023-05-22T02:47:36;99998.25;;;17.80;61.49
67980;BME280;54760;47.490;19.030;2023-05-22T02:50:02;100005.91;;;17.61;62.72
67980;BME280;54760;47.490;19.030;2023-05-22T02:52:27;100000.19;;;17.23;64.06
67980;BME280;54760;47.490;19.030;2023-05-22T02:54:53;100001.47;;;17.46;63.08
67980;BME280;54760;47.490;19.030;2023-05-22T02:57:18;100000.88;;;17.42;63.34
67980;BME280;54760;47.490;19.030;2023-05-22T02:59:44;100006.09;;;17.49;63.29
67980;BME280;54760;47.490;19.030;2023-05-22T03:02:09;100003.59;;;17.60;62.65
67980;BME280;54760;47.490;19.030;2023-05-22T03:04:36;99998.12;;;17.42;63.39
67980;BME280;54760;47.490;19.030;2023-05-22T03:07:03;100000.94;;;17.65;62.60
67980;BME280;54760;47.490;19.030;2023-05-22T03:09:28;100002.50;;;17.57;62.74
67980;BME280;54760;47.490;19.030;2023-05-22T03:11:54;100004.00;;;17.25;64.36
67980;BME280;54760;47.490;19.030;2023-05-22T03:14:19;100009.31;;;17.05;65.34
67980;BME280;54760;47.490;19.030;2023-05-22T03:16:44;100009.06;;;16.76;66.66
67980;BME280;54760;47.490;19.030;2023-05-22T03:19:14;99998.75;;;16.67;67.04
67980;BME280;54760;47.490;19.030;2023-05-22T03:21:40;100000.56;;;16.88;66.15
67980;BME280;54760;47.490;19.030;2023-05-22T03:24:07;99999.63;;;17.10;65.35
67980;BME280;54760;47.490;19.030;2023-05-22T03:26:32;99997.22;;;17.36;64.16
67980;BME280;54760;47.490;19.030;2023-05-22T03:28:58;99998.38;;;17.62;63.15
67980;BME280;54760;47.490;19.030;2023-05-22T03:31:24;99995.44;;;17.56;62.95
67980;BME280;54760;47.490;19.030;2023-05-22T03:33:50;100007.78;;;17.46;63.45
67980;BME280;54760;47.490;19.030;2023-05-22T03:36:17;100002.03;;;17.17;64.70
67980;BME280;54760;47.490;19.030;2023-05-22T03:38:43;100003.72;;;17.23;64.31
67980;BME280;54760;47.490;19.030;2023-05-22T03:41:08;99999.19;;;16.93;65.16
67980;BME280;54760;47.490;19.030;2023-05-22T03:43:34;99997.28;;;17.17;64.43
67980;BME280;54760;47.490;19.030;2023-05-22T03:45:59;100010.78;;;17.15;63.96
67980;BME280;54760;47.490;19.030;2023-05-22T03:48:25;100009.53;;;17.35;63.61
67980;BME280;54760;47.490;19.030;2023-05-22T03:50:50;99998.03;;;17.69;62.56
67980;BME280;54760;47.490;19.030;2023-05-22T03:53:16;99997.41;;;17.65;62.14
67980;BME280;54760;47.490;19.030;2023-05-22T03:55:41;99998.91;;;17.33;63.39
67980;BME280;54760;47.490;19.030;2023-05-22T03:58:07;100004.53;;;17.15;63.27
67980;BME280;54760;47.490;19.030;2023-05-22T04:00:32;100002.91;;;16.81;64.64
67980;BME280;54760;47.490;19.030;2023-05-22T04:02:59;100002.44;;;16.73;64.91
67980;BME280;54760;47.490;19.030;2023-05-22T04:05:24;99996.13;;;16.45;66.23
67980;BME280;54760;47.490;19.030;2023-05-22T04:07:50;100003.69;;;17.32;62.96
67980;BME280;54760;47.490;19.030;2023-05-22T04:10:16;100002.19;;;17.55;62.34
67980;BME280;54760;47.490;19.030;2023-05-22T04:12:41;99999.09;;;17.95;60.54
67980;BME280;54760;47.490;19.030;2023-05-22T04:15:07;100002.50;;;17.90;60.26
67980;BME280;54760;47.490;19.030;2023-05-22T04:17:37;100004.81;;;17.92;59.95
67980;BME280;54760;47.490;19.030;2023-05-22T04:20:03;100002.19;;;17.97;59.46
67980;BME280;54760;47.490;19.030;2023-05-22T04:22:30;99997.66;;;18.24;58.72
67980;BME280;54760;47.490;19.030;2023-05-22T04:24:56;100000.37;;;18.33;58.91
67980;BME280;54760;47.490;19.030;2023-05-22T04:27:21;99999.88;;;18.58;57.68
67980;BME280;54760;47.490;19.030;2023-05-22T04:29:47;99998.78;;;18.79;57.49
67980;BME280;54760;47.490;19.030;2023-05-22T04:32:15;99998.91;;;18.46;58.17
67980;BME280;54760;47.490;19.030;2023-05-22T04:34:44;99992.09;;;18.71;57.27
67980;BME280;54760;47.490;19.030;2023-05-22T04:37:10;99986.84;;;18.49;58.04
67980;BME280;54760;47.490;19.030;2023-05-22T04:39:35;99992.75;;;18.66;57.22
67980;BME280;54760;47.490;19.030;2023-05-22T04:42:01;99987.59;;;18.88;56.62
67980;BME280;54760;47.490;19.030;2023-05-22T04:44:30;99987.50;;;18.97;56.00
67980;BME280;54760;47.490;19.030;2023-05-22T04:47:01;99993.25;;;18.94;56.30
67980;BME280;54760;47.490;19.030;2023-05-22T04:49:27;99992.66;;;19.19;55.83
67980;BME280;54760;47.490;19.030;2023-05-22T04:51:56;99998.56;;;19.27;55.68
67980;BME280;54760;47.490;19.030;2023-05-22T04:54:22;99995.53;;;19.25;55.57
67980;BME280;54760;47.490;19.030;2023-05-22T04:56:49;99992.66;;;19.34;55.45
67980;BME280;54760;47.490;19.030;2023-05-22T04:59:16;100000.00;;;19.52;55.12
67980;BME280;54760;47.490;19.030;2023-05-22T05:01:41;100005.56;;;19.37;55.43
67980;BME280;54760;47.490;19.030;2023-05-22T05:04:11;100003.44;;;19.61;54.42
67980;BME280;54760;47.490;19.030;2023-05-22T05:06:37;99998.94;;;19.64;54.90
67980;BME280;54760;47.490;19.030;2023-05-22T05:09:03;100001.41;;;19.97;53.74
67980;BME280;54760;47.490;19.030;2023-05-22T05:11:29;100012.59;;;20.02;53.44
67980;BME280;54760;47.490;19.030;2023-05-22T05:13:55;100005.16;;;19.94;53.22
67980;BME280;54760;47.490;19.030;2023-05-22T05:16:21;100003.06;;;20.29;52.12
67980;BME280;54760;47.490;19.030;2023-05-22T05:18:47;100012.06;;;20.39;52.34
67980;BME280;54760;47.490;19.030;2023-05-22T05:21:12;100009.19;;;20.53;52.43
67980;BME280;54760;47.490;19.030;2023-05-22T05:23:38;100007.78;;;20.38;52.31
67980;BME280;54760;47.490;19.030;2023-05-22T05:26:03;100012.53;;;20.17;51.72
67980;BME280;54760;47.490;19.030;2023-05-22T05:28:29;100016.72;;;20.27;52.98
67980;BME280;54760;47.490;19.030;2023-05-22T05:30:54;100020.63;;;20.35;52.14
67980;BME280;54760;47.490;19.030;2023-05-22T05:33:19;100016.22;;;20.49;51.39
67980;BME280;54760;47.490;19.030;2023-05-22T05:35:45;100016.47;;;20.71;50.18
67980;BME280;54760;47.490;19.030;2023-05-22T05:38:10;100022.00;;;20.45;49.92
67980;BME280;54760;47.490;19.030;2023-05-22T05:40:36;100021.72;;;20.43;50.67
67980;BME280;54760;47.490;19.030;2023-05-22T05:43:01;100027.25;;;20.63;49.37
67980;BME280;54760;47.490;19.030;2023-05-22T05:45:27;100026.56;;;20.48;49.64
67980;BME280;54760;47.490;19.030;2023-05-22T05:47:53;100026.28;;;20.66;48.51
67980;BME280;54760;47.490;19.030;2023-05-22T05:50:19;100032.34;;;20.45;48.85
67980;BME280;54760;47.490;19.030;2023-05-22T05:52:45;100027.88;;;20.53;48.52
67980;BME280;54760;47.490;19.030;2023-05-22T05:55:10;100036.63;;;20.25;49.19
67980;BME280;54760;47.490;19.030;2023-05-22T05:57:36;100039.31;;;20.55;48.20
67980;BME280;54760;47.490;19.030;2023-05-22T06:00:01;100030.72;;;20.79;48.19
67980;BME280;54760;47.490;19.030;2023-05-22T06:02:28;100035.50;;;20.78;47.98
67980;BME280;54760;47.490;19.030;2023-05-22T06:04:54;100033.72;;;20.75;48.00
67980;BME280;54760;47.490;19.030;2023-05-22T06:07:20;100030.00;;;20.84;47.91
67980;BME280;54760;47.490;19.030;2023-05-22T06:09:45;100032.19;;;21.00;47.75
67980;BME280;54760;47.490;19.030;2023-05-22T06:12:11;100028.13;;;22.37;44.81
67980;BME280;54760;47.490;19.030;2023-05-22T06:14:39;100031.28;;;24.06;41.46
67980;BME280;54760;47.490;19.030;2023-05-22T06:17:05;100023.91;;;24.72;39.05
67980;BME280;54760;47.490;19.030;2023-05-22T06:19:33;100026.72;;;24.72;38.19
67980;BME280;54760;47.490;19.030;2023-05-22T06:21:59;100024.16;;;24.11;39.43
67980;BME280;54760;47.490;19.030;2023-05-22T06:24:24;100034.44;;;23.25;41.56
67980;BME280;54760;47.490;19.030;2023-05-22T06:26:50;100035.44;;;23.05;42.15
67980;BME280;54760;47.490;19.030;2023-05-22T06:29:15;100041.31;;;22.42;43.79
67980;BME280;54760;47.490;19.030;2023-05-22T06:31:41;100044.78;;;22.26;44.33
67980;BME280;54760;47.490;19.030;2023-05-22T06:34:06;100031.78;;;22.07;44.85
67980;BME280;54760;47.490;19.030;2023-05-22T06:36:32;100033.37;;;21.82;46.20
67980;BME280;54760;47.490;19.030;2023-05-22T06:38:59;100029.44;;;21.94;46.29
67980;BME280;54760;47.490;19.030;2023-05-22T06:41:24;100028.56;;;21.45;46.82
67980;BME280;54760;47.490;19.030;2023-05-22T06:43:50;100032.06;;;22.14;45.45
67980;BME280;54760;47.490;19.030;2023-05-22T06:46:16;100025.22;;;22.15;45.70
67980;BME280;54760;47.490;19.030;2023-05-22T06:48:41;100039.22;;;22.26;45.17
67980;BME280;54760;47.490;19.030;2023-05-22T06:51:06;100041.47;;;21.80;46.56
67980;BME280;54760;47.490;19.030;2023-05-22T06:53:35;100036.03;;;21.65;47.11
67980;BME280;54760;47.490;19.030;2023-05-22T06:56:01;100029.72;;;21.33;48.16
67980;BME280;54760;47.490;19.030;2023-05-22T06:58:26;100041.66;;;21.71;47.07
67980;BME280;54760;47.490;19.030;2023-05-22T07:00:51;100038.53;;;21.57;46.17
67980;BME280;54760;47.490;19.030;2023-05-22T07:03:18;100038.19;;;22.18;45.46
67980;BME280;54760;47.490;19.030;2023-05-22T07:05:43;100035.00;;;22.48;45.70
67980;BME280;54760;47.490;19.030;2023-05-22T07:08:09;100039.78;;;22.41;45.08
67980;BME280;54760;47.490;19.030;2023-05-22T07:10:34;100041.31;;;22.42;42.02
67980;BME280;54760;47.490;19.030;2023-05-22T07:13:00;100038.81;;;22.50;41.45
67980;BME280;54760;47.490;19.030;2023-05-22T07:15:25;100041.47;;;22.76;41.62
67980;BME280;54760;47.490;19.030;2023-05-22T07:17:51;100043.31;;;23.23;41.10
67980;BME280;54760;47.490;19.030;2023-05-22T07:20:16;100043.50;;;22.92;43.57
67980;BME280;54760;47.490;19.030;2023-05-22T07:22:42;100043.75;;;22.88;43.91
67980;BME280;54760;47.490;19.030;2023-05-22T07:25:07;100036.44;;;23.13;42.09
67980;BME280;54760;47.490;19.030;2023-05-22T07:27:33;100022.75;;;23.49;41.54
67980;BME280;54760;47.490;19.030;2023-05-22T07:29:58;100026.06;;;23.64;40.07
67980;BME280;54760;47.490;19.030;2023-05-22T07:32:24;100026.31;;;23.55;39.81
67980;BME280;54760;47.490;19.030;2023-05-22T07:34:49;100026.28;;;23.77;39.97
67980;BME280;54760;47.490;19.030;2023-05-22T07:37:15;100017.88;;;23.94;39.92
67980;BME280;54760;47.490;19.030;2023-05-22T07:39:40;100023.97;;;23.81;39.39
67980;BME280;54760;47.490;19.030;2023-05-22T07:42:06;100020.97;;;23.62;38.54
67980;BME280;54760;47.490;19.030;2023-05-22T07:44:32;100029.84;;;23.61;38.74
67980;BME280;54760;47.490;19.030;2023-05-22T07:46:58;100025.28;;;23.36;39.00
67980;BME280;54760;47.490;19.030;2023-05-22T07:49:24;100019.44;;;23.61;39.45
67980;BME280;54760;47.490;19.030;2023-05-22T07:51:49;100016.87;;;23.80;38.50
67980;BME280;54760;47.490;19.030;2023-05-22T07:54:15;100025.78;;;23.73;38.47
67980;BME280;54760;47.490;19.030;2023-05-22T07:56:42;100026.81;;;23.59;38.76
67980;BME280;54760;47.490;19.030;2023-05-22T07:59:10;100022.50;;;23.47;39.34
67980;BME280;54760;47.490;19.030;2023-05-22T08:01:37;100029.59;;;23.70;38.83
67980;BME280;54760;47.490;19.030;2023-05-22T08:04:03;100018.66;;;23.72;38.36
67980;BME280;54760;47.490;19.030;2023-05-22T08:06:29;100023.75;;;23.79;38.15
67980;BME280;54760;47.490;19.030;2023-05-22T08:08:55;100020.44;;;23.75;38.61
67980;BME280;54760;47.490;19.030;2023-05-22T08:11:21;100027.72;;;24.23;37.80
67980;BME280;54760;47.490;19.030;2023-05-22T08:13:46;100014.50;;;24.17;37.53
67980;BME280;54760;47.490;19.030;2023-05-22T08:16:12;100027.13;;;24.41;37.35
67980;BME280;54760;47.490;19.030;2023-05-22T08:18:37;100020.63;;;24.68;36.91
67980;BME280;54760;47.490;19.030;2023-05-22T08:21:03;100018.94;;;24.48;37.07
67980;BME280;54760;47.490;19.030;2023-05-22T08:23:28;100020.34;;;24.20;37.15
67980;BME280;54760;47.490;19.030;2023-05-22T08:25:55;100022.00;;;24.45;36.69
67980;BME280;54760;47.490;19.030;2023-05-22T08:28:21;100026.69;;;24.26;37.24
67980;BME280;54760;47.490;19.030;2023-05-22T08:30:46;100021.62;;;24.19;37.32
67980;BME280;54760;47.490;19.030;2023-05-22T08:33:12;100028.19;;;24.27;37.11
67980;BME280;54760;47.490;19.030;2023-05-22T08:35:37;100018.53;;;24.28;36.26
67980;BME280;54760;47.490;19.030;2023-05-22T08:38:03;100023.34;;;24.33;35.98
67980;BME280;54760;47.490;19.030;2023-05-22T08:40:34;100024.75;;;24.56;36.92
67980;BME280;54760;47.490;19.030;2023-05-22T08:43:06;100023.72;;;24.59;36.44
67980;BME280;54760;47.490;19.030;2023-05-22T08:45:34;100017.34;;;24.64;36.55
67980;BME280;54760;47.490;19.030;2023-05-22T08:48:04;100013.06;;;24.98;36.42
67980;BME280;54760;47.490;19.030;2023-05-22T08:50:30;100014.53;;;25.40;35.55
67980;BME280;54760;47.490;19.030;2023-05-22T08:52:59;100020.19;;;24.99;36.19
67980;BME280;54760;47.490;19.030;2023-05-22T08:55:27;100018.69;;;25.88;34.68
67980;BME280;54760;47.490;19.030;2023-05-22T08:57:55;100014.53;;;25.95;32.94
67980;BME280;54760;47.490;19.030;2023-05-22T09:00:21;100015.91;;;26.31;32.97
67980;BME280;54760;47.490;19.030;2023-05-22T09:02:47;100018.00;;;26.25;33.03
67980;BME280;54760;47.490;19.030;2023-05-22T09:05:14;100025.78;;;26.56;32.80
67980;BME280;54760;47.490;19.030;2023-05-22T09:07:41;100019.87;;;26.97;31.94
67980;BME280;54760;47.490;19.030;2023-05-22T09:10:06;100013.41;;;27.02;32.03
67980;BME280;54760;47.490;19.030;2023-05-22T09:12:32;100015.62;;;26.53;32.74
67980;BME280;54760;47.490;19.030;2023-05-22T09:15:08;100011.81;;;26.32;32.84
67980;BME280;54760;47.490;19.030;2023-05-22T09:17:38;100006.91;;;26.38;32.60
67980;BME280;54760;47.490;19.030;2023-05-22T09:20:04;100010.22;;;25.94;32.68
67980;BME280;54760;47.490;19.030;2023-05-22T09:22:36;100005.75;;;26.65;32.49
67980;BME280;54760;47.490;19.030;2023-05-22T09:25:03;100009.47;;;26.55;34.95
67980;BME280;54760;47.490;19.030;2023-05-22T09:27:28;100011.56;;;26.30;35.66
67980;BME280;54760;47.490;19.030;2023-05-22T09:29:55;100007.75;;;26.09;35.61
67980;BME280;54760;47.490;19.030;2023-05-22T09:32:22;100012.03;;;26.34;35.14
67980;BME280;54760;47.490;19.030;2023-05-22T09:34:49;100007.97;;;26.11;33.58
67980;BME280;54760;47.490;19.030;2023-05-22T09:37:15;100006.34;;;26.40;33.53
67980;BME280;54760;47.490;19.030;2023-05-22T09:39:45;100013.50;;;26.41;32.53
67980;BME280;54760;47.490;19.030;2023-05-22T09:42:13;100004.47;;;26.66;32.15
67980;BME280;54760;47.490;19.030;2023-05-22T09:44:39;100001.59;;;26.91;32.60
67980;BME280;54760;47.490;19.030;2023-05-22T09:47:07;100002.47;;;26.80;33.74
67980;BME280;54760;47.490;19.030;2023-05-22T09:49:41;100002.66;;;26.88;33.51
67980;BME280;54760;47.490;19.030;2023-05-22T09:52:07;99995.56;;;26.25;35.32
67980;BME280;54760;47.490;19.030;2023-05-22T09:54:33;99999.53;;;26.91;34.09
67980;BME280;54760;47.490;19.030;2023-05-22T09:57:00;99998.69;;;26.96;33.41
67980;BME280;54760;47.490;19.030;2023-05-22T09:59:28;99990.72;;;27.00;32.99
67980;BME280;54760;47.490;19.030;2023-05-22T10:01:55;99995.69;;;26.14;34.21
67980;BME280;54760;47.490;19.030;2023-05-22T10:04:22;99996.66;;;26.41;33.92
67980;BME280;54760;47.490;19.030;2023-05-22T10:06:52;99996.81;;;27.49;32.91
67980;BME280;54760;47.490;19.030;2023-05-22T10:09:23;99996.62;;;27.74;32.25
67980;BME280;54760;47.490;19.030;2023-05-22T10:11:52;99996.97;;;27.38;32.41
67980;BME280;54760;47.490;19.030;2023-05-22T10:14:19;99992.94;;;27.66;31.83
67980;BME280;54760;47.490;19.030;2023-05-22T10:16:44;99997.62;;;27.44;32.04
67980;BME280;54760;47.490;19.030;2023-05-22T10:19:11;100001.06;;;27.37;32.74
67980;BME280;54760;47.490;19.030;2023-05-22T10:21:38;99991.81;;;25.98;34.65
67980;BME280;54760;47.490;19.030;2023-05-22T10:24:05;99981.72;;;25.90;34.79
67980;BME280;54760;47.490;19.030;2023-05-22T10:26:32;99990.78;;;25.96;35.10
67980;BME280;54760;47.490;19.030;2023-05-22T10:29:15;99982.53;;;25.60;35.58
67980;BME280;54760;47.490;19.030;2023-05-22T10:31:47;99970.25;;;26.30;34.19
67980;BME280;54760;47.490;19.030;2023-05-22T10:34:23;99977.28;;;26.74;35.17
67980;BME280;54760;47.490;19.030;2023-05-22T10:39:38;99970.44;;;26.38;34.92
67980;BME280;54760;47.490;19.030;2023-05-22T10:42:11;99969.25;;;26.65;33.93
67980;BME280;54760;47.490;19.030;2023-05-22T10:44:36;99962.69;;;26.63;34.76
67980;BME280;54760;47.490;19.030;2023-05-22T10:47:09;99953.53;;;26.76;34.13
67980;BME280;54760;47.490;19.030;2023-05-22T10:49:35;99957.13;;;26.57;33.40
67980;BME280;54760;47.490;19.030;2023-05-22T10:52:02;99955.47;;;26.99;34.62
67980;BME280;54760;47.490;19.030;2023-05-22T10:54:44;99952.09;;;26.13;34.09
67980;BME280;54760;47.490;19.030;2023-05-22T10:57:14;99955.69;;;25.70;34.29
67980;BME280;54760;47.490;19.030;2023-05-22T10:59:41;99949.00;;;26.16;34.26
67980;BME280;54760;47.490;19.030;2023-05-22T11:02:18;99950.47;;;26.23;33.57
67980;BME280;54760;47.490;19.030;2023-05-22T11:04:44;99943.44;;;26.86;33.94
67980;BME280;54760;47.490;19.030;2023-05-22T11:07:09;99938.66;;;26.81;32.84
67980;BME280;54760;47.490;19.030;2023-05-22T11:09:46;99937.84;;;26.67;33.83
67980;BME280;54760;47.490;19.030;2023-05-22T11:15:06;99929.59;;;27.06;33.11
67980;BME280;54760;47.490;19.030;2023-05-22T11:22:36;99924.37;;;26.97;32.90
67980;BME280;54760;47.490;19.030;2023-05-22T11:27:32;99920.28;;;26.80;33.43
67980;BME280;54760;47.490;19.030;2023-05-22T11:29:58;99924.75;;;26.56;33.23
67980;BME280;54760;47.490;19.030;2023-05-22T11:32:25;99914.53;;;26.91;32.80
67980;BME280;54760;47.490;19.030;2023-05-22T11:34:51;99909.91;;;26.74;32.92
67980;BME280;54760;47.490;19.030;2023-05-22T11:37:17;99912.53;;;26.86;33.40
67980;BME280;54760;47.490;19.030;2023-05-22T11:40:03;99918.31;;;26.93;33.57
67980;BME280;54760;47.490;19.030;2023-05-22T11:42:30;99912.00;;;27.19;33.46
67980;BME280;54760;47.490;19.030;2023-05-22T11:44:55;99903.38;;;27.43;33.14
67980;BME280;54760;47.490;19.030;2023-05-22T11:47:21;99902.97;;;27.66;32.40
67980;BME280;54760;47.490;19.030;2023-05-22T11:49:47;99898.50;;;27.44;32.25
67980;BME280;54760;47.490;19.030;2023-05-22T11:52:15;99902.41;;;27.80;32.18
67980;BME280;54760;47.490;19.030;2023-05-22T11:54:44;99894.94;;;27.56;32.23
67980;BME280;54760;47.490;19.030;2023-05-22T11:57:09;99895.63;;;27.76;32.32
67980;BME280;54760;47.490;19.030;2023-05-22T11:59:35;99901.69;;;28.27;31.28
67980;BME280;54760;47.490;19.030;2023-05-22T12:02:00;99896.31;;;28.16;31.57
67980;BME280;54760;47.490;19.030;2023-05-22T12:04:26;99889.28;;;27.96;32.21
67980;BME280;54760;47.490;19.030;2023-05-22T12:06:54;99893.44;;;27.69;32.12
67980;BME280;54760;47.490;19.030;2023-05-22T12:09:20;99888.44;;;28.14;31.47
67980;BME280;54760;47.490;19.030;2023-05-22T12:11:47;99893.75;;;27.78;31.50
67980;BME280;54760;47.490;19.030;2023-05-22T12:14:12;99891.25;;;27.88;31.94
67980;BME280;54760;47.490;19.030;2023-05-22T12:16:38;99886.28;;;27.94;31.85
67980;BME280;54760;47.490;19.030;2023-05-22T12:19:05;99886.03;;;28.18;31.63
67980;BME280;54760;47.490;19.030;2023-05-22T12:21:31;99876.19;;;28.12;31.10
67980;BME280;54760;47.490;19.030;2023-05-22T12:23:57;99874.78;;;28.05;31.40
67980;BME280;54760;47.490;19.030;2023-05-22T12:26:22;99870.97;;;28.16;31.59
67980;BME280;54760;47.490;19.030;2023-05-22T12:28:54;99862.50;;;28.29;31.44
67980;BME280;54760;47.490;19.030;2023-05-22T12:31:20;99873.16;;;28.43;30.76
67980;BME280;54760;47.490;19.030;2023-05-22T12:33:47;99862.00;;;28.17;31.05
67980;BME280;54760;47.490;19.030;2023-05-22T12:36:12;99864.72;;;28.43;30.90
67980;BME280;54760;47.490;19.030;2023-05-22T12:38:38;99860.88;;;28.33;31.20
67980;BME280;54760;47.490;19.030;2023-05-22T12:41:03;99859.69;;;28.50;31.32
67980;BME280;54760;47.490;19.030;2023-05-22T12:43:29;99848.87;;;28.54;30.93
67980;BME280;54760;47.490;19.030;2023-05-22T12:45:54;99853.34;;;28.49;31.05
67980;BME280;54760;47.490;19.030;2023-05-22T12:48:19;99841.63;;;28.24;31.59
67980;BME280;54760;47.490;19.030;2023-05-22T12:50:45;99840.31;;;28.25;31.68
67980;BME280;54760;47.490;19.030;2023-05-22T12:53:12;99833.50;;;27.87;31.46
67980;BME280;54760;47.490;19.030;2023-05-22T12:55:38;99830.94;;;27.76;32.27
67980;BME280;54760;47.490;19.030;2023-05-22T12:58:03;99827.19;;;27.60;31.94
67980;BME280;54760;47.490;19.030;2023-05-22T13:00:29;99825.31;;;27.76;32.15
67980;BME280;54760;47.490;19.030;2023-05-22T13:02:54;99817.19;;;28.06;31.83
67980;BME280;54760;47.490;19.030;2023-05-22T13:05:20;99819.16;;;28.11;31.81